Time;durP1;ratioP1;P1;durP2;ratioP2;P2;SDS_P1;SDS_P2;PMS_P1;PMS_P2;Temp;Humidity;BMP_temperature;BMP_pressure;BME280_temperature;BME280_humidity;BME280_pressure;Samples;Min_cycle;Max_cycle;Signal;HPM_P1;HPM_P2
2022/02/15 00:00:03;;;;;;;29.10;18.15;;;;;;;;;;5064417;28;20520;-81
2022/02/15 00:02:29;;;;;;;30.30;18.63;;;;;;;;;;5062899;28;20033;-80
2022/02/15 00:04:55;;;;;;;30.15;20.00;;;;;;;;;;5044703;28;20508;-80
2022/02/15 00:07:21;;;;;;;28.17;19.10;;;;;;;;;;5063083;28;20028;-81
2022/02/15 00:09:47;;;;;;;28.63;19.27;;;;;;;;;;5030818;28;20025;-81
2022/02/15 00:12:13;;;;;;;27.75;17.90;;;;;;;;;;5062114;28;20481;-81
2022/02/15 00:14:39;;;;;;;30.92;18.88;;;;;;;;;;5045503;28;20036;-80
2022/02/15 00:17:05;;;;;;;31.63;20.15;;;;;;;;;;5062807;28;20013;-80
2022/02/15 00:19:31;;;;;;;26.00;18.45;;;;;;;;;;5044792;28;20117;-81
2022/02/15 00:21:57;;;;;;;31.60;19.70;;;;;;;;;;5063261;28;20065;-80
2022/02/15 00:24:23;;;;;;;28.95;18.67;;;;;;;;;;5044757;28;20056;-80
2022/02/15 00:26:49;;;;;;;30.40;19.83;;;;;;;;;;5044309;28;20033;-81
2022/02/15 00:29:15;;;;;;;31.25;20.35;;;;;;;;;;5032880;28;20040;-81
2022/02/15 00:31:41;;;;;;;30.77;20.77;;;;;;;;;;5044667;28;20028;-81
2022/02/15 00:34:07;;;;;;;30.27;20.30;;;;;;;;;;5062706;28;20104;-81
2022/02/15 00:36:33;;;;;;;29.25;19.55;;;;;;;;;;5062394;28;20049;-80
2022/02/15 00:38:59;;;;;;;29.88;19.77;;;;;;;;;;5051017;28;20025;-81
2022/02/15 00:41:25;;;;;;;34.25;21.10;;;;;;;;;;5042751;28;20449;-80
2022/02/15 00:43:51;;;;;;;30.85;19.17;;;;;;;;;;5024543;28;20029;-80
2022/02/15 00:46:17;;;;;;;31.67;20.33;;;;;;;;;;5029289;28;20392;-81
2022/02/15 00:48:43;;;;;;;26.52;19.17;;;;;;;;;;5035610;28;20052;-81
2022/02/15 00:51:09;;;;;;;33.40;19.95;;;;;;;;;;5029018;28;20017;-81
2022/02/15 00:53:35;;;;;;;30.58;20.08;;;;;;;;;;5044716;28;20033;-81
2022/02/15 00:56:01;;;;;;;31.85;20.38;;;;;;;;;;5045113;28;20024;-80
2022/02/15 00:58:27;;;;;;;30.77;19.83;;;;;;;;;;5057586;28;20089;-81
2022/02/15 01:00:53;;;;;;;30.25;20.10;;;;;;;;;;5044386;28;20032;-81
2022/02/15 01:03:19;;;;;;;26.48;18.40;;;;;;;;;;5044342;28;20025;-81
2022/02/15 01:05:45;;;;;;;28.52;19.83;;;;;;;;;;5057375;28;20090;-80
2022/02/15 01:08:12;;;;;;;28.40;18.45;;;;;;;;;;5040382;28;20075;-80
2022/02/15 01:10:38;;;;;;;29.80;18.95;;;;;;;;;;5062601;28;20020;-80
2022/02/15 01:13:04;;;;;;;31.88;18.98;;;;;;;;;;5037078;28;20038;-80
2022/02/15 01:15:30;;;;;;;33.08;19.48;;;;;;;;;;5034986;28;20025;-80
2022/02/15 01:17:56;;;;;;;29.48;20.23;;;;;;;;;;5058577;28;20032;-81
2022/02/15 01:20:22;;;;;;;32.50;20.80;;;;;;;;;;5043359;28;20034;-81
2022/02/15 01:22:49;;;;;;;27.58;19.15;;;;;;;;;;5039844;28;20029;-80
2022/02/15 01:25:15;;;;;;;31.75;20.27;;;;;;;;;;5063400;28;20112;-81
2022/02/15 01:27:41;;;;;;;32.42;20.60;;;;;;;;;;5042298;28;20074;-80
2022/02/15 01:30:07;;;;;;;33.47;20.88;;;;;;;;;;5025600;28;20036;-80
2022/02/15 01:32:34;;;;;;;31.65;20.77;;;;;;;;;;5044934;28;20021;-80
2022/02/15 01:35:00;;;;;;;30.85;19.50;;;;;;;;;;5044779;28;20108;-80
2022/02/15 01:37:26;;;;;;;33.33;21.23;;;;;;;;;;5045155;28;20037;-81
2022/02/15 01:39:52;;;;;;;35.08;21.50;;;;;;;;;;5062841;28;20071;-80
2022/02/15 01:42:19;;;;;;;31.80;20.77;;;;;;;;;;5049239;28;20033;-80
2022/02/15 01:44:45;;;;;;;34.20;21.67;;;;;;;;;;5059131;28;20029;-80
2022/02/15 01:47:21;;;;;;;36.05;21.02;;;;;;;;;;5053176;28;20052;-80
2022/02/15 01:49:47;;;;;;;31.67;21.63;;;;;;;;;;5043507;28;20651;-80
2022/02/15 01:52:13;;;;;;;37.20;23.40;;;;;;;;;;5063411;28;20036;-80
2022/02/15 01:54:39;;;;;;;40.53;24.08;;;;;;;;;;5043685;28;20052;-81
2022/02/15 01:57:05;;;;;;;42.05;24.58;;;;;;;;;;5036188;28;20496;-81
2022/02/15 01:59:32;;;;;;;34.47;23.08;;;;;;;;;;5045061;28;20124;-81
2022/02/15 02:01:59;;;;;;;37.72;22.27;;;;;;;;;;5047852;28;20562;-80
2022/02/15 02:07:09;;;;;;;35.60;23.33;;;;;;;;;;5063768;28;20098;-80
2022/02/15 02:09:35;;;;;;;32.92;21.52;;;;;;;;;;5040027;28;20030;-80
2022/02/15 02:12:01;;;;;;;33.50;22.73;;;;;;;;;;5023024;28;20036;-80
2022/02/15 02:14:27;;;;;;;33.60;20.27;;;;;;;;;;5035838;28;20025;-80
2022/02/15 02:16:53;;;;;;;32.60;19.85;;;;;;;;;;5060954;28;20025;-81
2022/02/15 02:19:19;;;;;;;29.17;19.73;;;;;;;;;;5044035;28;20035;-81
2022/02/15 02:21:45;;;;;;;30.42;18.00;;;;;;;;;;5044083;28;20020;-81
2022/02/15 02:24:11;;;;;;;27.75;18.70;;;;;;;;;;5038044;28;20026;-80
2022/02/15 02:26:37;;;;;;;25.73;18.70;;;;;;;;;;5025666;28;20091;-80
2022/02/15 02:29:04;;;;;;;29.40;19.25;;;;;;;;;;5055927;28;20025;-80
2022/02/15 02:31:30;;;;;;;29.67;19.30;;;;;;;;;;5045196;28;20458;-80
2022/02/15 02:34:00;;;;;;;29.05;17.80;;;;;;;;;;5061619;28;20025;-81
2022/02/15 02:36:26;;;;;;;33.72;19.98;;;;;;;;;;5040630;28;20033;-80
2022/02/15 02:38:52;;;;;;;29.15;19.63;;;;;;;;;;5035814;28;20055;-80
2022/02/15 02:41:18;;;;;;;29.77;18.90;;;;;;;;;;5044091;28;20488;-80
2022/02/15 02:43:44;;;;;;;29.42;20.02;;;;;;;;;;5044209;28;20033;-80
2022/02/15 02:46:10;;;;;;;28.13;18.55;;;;;;;;;;5044642;28;20048;-81
2022/02/15 02:48:36;;;;;;;29.05;18.50;;;;;;;;;;5057570;28;20414;-80
2022/02/15 02:51:03;;;;;;;30.65;19.27;;;;;;;;;;5043690;28;20451;-80
2022/02/15 02:53:29;;;;;;;26.70;18.88;;;;;;;;;;5043989;28;20055;-81
2022/02/15 02:55:55;;;;;;;29.88;20.10;;;;;;;;;;5042282;28;20514;-80
2022/02/15 02:58:21;;;;;;;26.58;17.95;;;;;;;;;;5033739;28;20048;-81
2022/02/15 03:00:47;;;;;;;28.77;18.75;;;;;;;;;;5017653;28;20029;-81
2022/02/15 03:03:13;;;;;;;28.65;18.30;;;;;;;;;;5018916;28;20057;-81
2022/02/15 03:05:40;;;;;;;26.70;18.48;;;;;;;;;;5054936;28;20055;-81
2022/02/15 03:08:06;;;;;;;29.67;19.05;;;;;;;;;;5031406;28;20052;-80
2022/02/15 03:10:32;;;;;;;29.10;19.13;;;;;;;;;;5054300;28;20021;-81
2022/02/15 03:12:58;;;;;;;28.38;17.92;;;;;;;;;;5054921;28;20032;-81
2022/02/15 03:15:25;;;;;;;24.83;17.38;;;;;;;;;;5037397;28;20029;-80
2022/02/15 03:17:51;;;;;;;27.52;18.35;;;;;;;;;;5036169;28;20029;-81
2022/02/15 03:20:17;;;;;;;28.50;18.83;;;;;;;;;;5036908;28;20466;-81
2022/02/15 03:22:43;;;;;;;30.00;19.17;;;;;;;;;;5036760;28;20083;-81
2022/02/15 03:25:09;;;;;;;28.73;19.52;;;;;;;;;;5037212;28;20392;-81
2022/02/15 03:27:35;;;;;;;27.33;18.35;;;;;;;;;;5055379;28;20073;-80
2022/02/15 03:30:01;;;;;;;29.60;19.10;;;;;;;;;;5037777;28;20061;-80
2022/02/15 03:32:27;;;;;;;31.77;19.58;;;;;;;;;;5036131;28;20041;-80
2022/02/15 03:34:53;;;;;;;27.38;18.33;;;;;;;;;;5047991;28;20032;-81
2022/02/15 03:37:19;;;;;;;27.45;18.85;;;;;;;;;;5036937;28;20100;-81
2022/02/15 03:39:45;;;;;;;28.52;18.15;;;;;;;;;;5050184;28;20043;-80
2022/02/15 03:44:56;;;;;;;26.55;17.67;;;;;;;;;;5035446;28;20130;-80
2022/02/15 03:47:22;;;;;;;29.63;18.45;;;;;;;;;;5053344;28;20041;-81
2022/02/15 03:49:48;;;;;;;29.35;19.65;;;;;;;;;;5054402;28;20036;-81
2022/02/15 03:52:14;;;;;;;30.33;20.00;;;;;;;;;;5037649;28;20120;-81
2022/02/15 03:54:40;;;;;;;33.28;21.23;;;;;;;;;;5054863;28;20032;-81
2022/02/15 03:57:06;;;;;;;29.92;19.52;;;;;;;;;;5036639;28;20395;-80
2022/02/15 03:59:32;;;;;;;28.73;18.90;;;;;;;;;;5031556;28;20108;-80
2022/02/15 04:01:58;;;;;;;30.00;19.05;;;;;;;;;;5050536;28;20435;-81
2022/02/15 04:04:24;;;;;;;26.02;17.63;;;;;;;;;;5040273;28;20399;-81
2022/02/15 04:06:51;;;;;;;25.63;18.25;;;;;;;;;;5058690;28;20029;-81
2022/02/15 04:09:17;;;;;;;29.38;19.25;;;;;;;;;;5058239;28;20051;-80
2022/02/15 04:11:43;;;;;;;25.58;18.05;;;;;;;;;;5058358;28;20521;-81
2022/02/15 04:14:09;;;;;;;27.90;18.02;;;;;;;;;;5057507;28;20029;-81
2022/02/15 04:16:37;;;;;;;29.35;18.38;;;;;;;;;;5040430;28;20031;-81
2022/02/15 04:19:03;;;;;;;29.95;18.70;;;;;;;;;;5057546;28;20047;-81
2022/02/15 04:21:29;;;;;;;29.25;18.83;;;;;;;;;;5058356;28;20552;-81
2022/02/15 04:23:55;;;;;;;25.60;18.23;;;;;;;;;;5058566;28;20486;-80
2022/02/15 04:26:21;;;;;;;30.90;17.80;;;;;;;;;;5026616;28;20103;-81
2022/02/15 04:28:47;;;;;;;29.88;17.85;;;;;;;;;;5056037;28;20021;-80
2022/02/15 04:31:13;;;;;;;29.10;18.60;;;;;;;;;;5055499;28;20021;-80
2022/02/15 04:33:39;;;;;;;27.40;18.08;;;;;;;;;;5038422;28;20029;-80
2022/02/15 04:36:06;;;;;;;30.45;18.67;;;;;;;;;;5057389;28;20376;-81
2022/02/15 04:38:32;;;;;;;29.98;19.15;;;;;;;;;;5038720;28;20028;-81
2022/02/15 04:40:58;;;;;;;29.88;19.85;;;;;;;;;;5057711;28;20039;-81
2022/02/15 04:43:24;;;;;;;30.88;19.67;;;;;;;;;;5039707;28;20060;-81
2022/02/15 04:45:50;;;;;;;28.35;18.65;;;;;;;;;;5057528;28;20025;-81
2022/02/15 04:48:16;;;;;;;31.77;19.45;;;;;;;;;;5055757;28;20092;-80
2022/02/15 04:50:42;;;;;;;28.15;18.33;;;;;;;;;;5036726;28;20451;-80
2022/02/15 04:53:08;;;;;;;26.45;18.75;;;;;;;;;;5056621;28;20040;-81
2022/02/15 04:55:34;;;;;;;29.98;19.10;;;;;;;;;;5052375;28;20059;-81
2022/02/15 04:58:00;;;;;;;29.45;19.65;;;;;;;;;;5054338;28;20122;-81
2022/02/15 05:00:26;;;;;;;31.10;20.13;;;;;;;;;;5019610;28;20043;-80
2022/02/15 05:02:52;;;;;;;31.35;19.85;;;;;;;;;;5019475;28;20556;-81
2022/02/15 05:05:18;;;;;;;33.95;19.63;;;;;;;;;;5049754;28;20044;-81
2022/02/15 05:07:44;;;;;;;39.45;20.65;;;;;;;;;;5056801;28;20025;-81
2022/02/15 05:10:10;;;;;;;33.08;19.85;;;;;;;;;;5054762;28;20717;-80
2022/02/15 05:12:37;;;;;;;27.13;18.35;;;;;;;;;;5052175;28;20056;-81
2022/02/15 05:15:09;;;;;;;30.10;19.42;;;;;;;;;;5038447;28;20506;-81
2022/02/15 05:17:35;;;;;;;32.92;20.42;;;;;;;;;;5052888;28;20022;-80
2022/02/15 05:20:01;;;;;;;33.10;21.58;;;;;;;;;;5041679;28;20123;-80
2022/02/15 05:22:27;;;;;;;30.13;19.23;;;;;;;;;;5033417;28;20036;-80
2022/02/15 05:24:53;;;;;;;30.80;21.27;;;;;;;;;;5045928;28;20052;-81
2022/02/15 05:27:19;;;;;;;30.17;20.95;;;;;;;;;;5048566;28;20111;-81
2022/02/15 05:29:45;;;;;;;35.05;22.45;;;;;;;;;;5056985;28;20022;-81
2022/02/15 05:32:12;;;;;;;31.42;21.30;;;;;;;;;;5056487;28;20052;-81
2022/02/15 05:34:38;;;;;;;34.25;22.17;;;;;;;;;;5041216;28;20059;-80
2022/02/15 05:37:04;;;;;;;31.88;21.33;;;;;;;;;;5050930;28;20047;-81
2022/02/15 05:39:30;;;;;;;29.10;20.13;;;;;;;;;;5067044;28;20021;-81
2022/02/15 05:41:56;;;;;;;31.05;20.40;;;;;;;;;;5050277;28;20025;-80
2022/02/15 05:44:22;;;;;;;27.27;18.77;;;;;;;;;;5040731;28;20089;-80
2022/02/15 05:46:48;;;;;;;28.73;17.77;;;;;;;;;;5046774;28;20526;-80
2022/02/15 05:49:14;;;;;;;30.02;19.95;;;;;;;;;;5063492;28;20029;-80
2022/02/15 05:51:40;;;;;;;31.58;21.25;;;;;;;;;;5038470;28;20029;-81
2022/02/15 05:54:06;;;;;;;29.48;20.10;;;;;;;;;;5027402;28;20033;-81
2022/02/15 05:56:32;;;;;;;31.38;20.55;;;;;;;;;;5055379;28;20479;-81
2022/02/15 05:58:58;;;;;;;31.73;19.67;;;;;;;;;;5049594;28;20029;-81
2022/02/15 06:01:25;;;;;;;29.63;20.10;;;;;;;;;;5055122;28;20047;-80
2022/02/15 06:04:10;;;;;;;29.98;19.40;;;;;;;;;;5037605;28;20025;-81
2022/02/15 06:06:36;;;;;;;27.10;18.00;;;;;;;;;;5054578;28;20367;-81
2022/02/15 06:09:02;;;;;;;30.83;20.02;;;;;;;;;;5056841;28;20473;-81
2022/02/15 06:11:28;;;;;;;28.88;19.48;;;;;;;;;;5052906;28;20017;-81
2022/02/15 06:13:55;;;;;;;27.10;19.02;;;;;;;;;;5035243;28;20127;-81
2022/02/15 06:16:27;;;;;;;28.85;20.15;;;;;;;;;;5030786;28;20098;-81
2022/02/15 06:18:59;;;;;;;30.98;19.52;;;;;;;;;;5040072;28;20025;-80
2022/02/15 06:21:25;;;;;;;28.52;19.75;;;;;;;;;;5044629;28;20021;-80
2022/02/15 06:23:52;;;;;;;26.00;19.40;;;;;;;;;;5047907;28;20043;-80
2022/02/15 06:26:18;;;;;;;30.35;20.13;;;;;;;;;;5066433;28;20029;-80
2022/02/15 06:28:44;;;;;;;33.78;21.52;;;;;;;;;;5065787;28;20048;-81
2022/02/15 06:31:11;;;;;;;34.38;21.40;;;;;;;;;;5052891;28;20025;-81
2022/02/15 06:33:37;;;;;;;30.55;21.25;;;;;;;;;;5035596;28;20033;-81
2022/02/15 06:36:04;;;;;;;29.00;21.70;;;;;;;;;;5037749;28;20037;-81
2022/02/15 06:38:30;;;;;;;36.72;23.95;;;;;;;;;;5037788;28;20029;-81
2022/02/15 06:40:56;;;;;;;32.00;21.90;;;;;;;;;;5037062;28;20021;-81
2022/02/15 06:43:22;;;;;;;33.88;24.15;;;;;;;;;;5036633;28;20056;-81
2022/02/15 06:45:48;;;;;;;33.08;23.88;;;;;;;;;;5035348;28;20033;-81
2022/02/15 06:48:14;;;;;;;32.70;23.30;;;;;;;;;;5036799;28;20102;-81
2022/02/15 06:50:40;;;;;;;34.40;22.33;;;;;;;;;;5052731;28;20029;-81
2022/02/15 06:53:06;;;;;;;30.60;24.02;;;;;;;;;;5035179;28;20029;-81
2022/02/15 06:55:32;;;;;;;35.50;23.20;;;;;;;;;;5037378;28;20052;-81
2022/02/15 06:57:58;;;;;;;32.97;22.17;;;;;;;;;;5055202;28;20037;-81
2022/02/15 07:00:24;;;;;;;32.15;21.70;;;;;;;;;;5035374;28;20025;-81
2022/02/15 07:02:50;;;;;;;37.42;23.70;;;;;;;;;;5054036;28;20498;-81
2022/02/15 07:05:16;;;;;;;35.55;21.55;;;;;;;;;;5037711;28;20078;-81
2022/02/15 07:07:43;;;;;;;36.80;24.10;;;;;;;;;;5037176;28;20112;-81
2022/02/15 07:10:10;;;;;;;36.75;23.67;;;;;;;;;;5036817;28;20036;-81
2022/02/15 07:15:40;;;;;;;38.55;23.05;;;;;;;;;;5046491;28;20136;-81
2022/02/15 07:18:06;;;;;;;34.83;24.10;;;;;;;;;;5071204;28;20033;-80
2022/02/15 07:20:32;;;;;;;33.75;22.27;;;;;;;;;;5038101;28;20091;-80
2022/02/15 07:22:58;;;;;;;32.63;22.13;;;;;;;;;;5052017;28;20400;-80
2022/02/15 07:25:24;;;;;;;35.63;22.60;;;;;;;;;;5036307;28;20505;-80
2022/02/15 07:27:50;;;;;;;35.85;23.70;;;;;;;;;;5036284;28;20509;-80
2022/02/15 07:30:16;;;;;;;33.75;21.48;;;;;;;;;;5035853;28;20039;-81
2022/02/15 07:32:42;;;;;;;33.45;23.95;;;;;;;;;;5034903;28;20028;-81
2022/02/15 07:35:08;;;;;;;34.60;23.55;;;;;;;;;;5055020;28;20025;-81
2022/02/15 07:37:34;;;;;;;33.13;24.85;;;;;;;;;;5058227;28;20029;-81
2022/02/15 07:40:01;;;;;;;33.80;21.13;;;;;;;;;;5050294;28;20025;-81
2022/02/15 07:42:27;;;;;;;32.35;22.65;;;;;;;;;;5035953;28;20037;-81
2022/02/15 07:44:53;;;;;;;30.63;22.13;;;;;;;;;;5040010;28;20025;-81
2022/02/15 07:47:19;;;;;;;32.45;20.13;;;;;;;;;;5063219;28;20041;-81
2022/02/15 07:49:45;;;;;;;34.00;21.90;;;;;;;;;;5055467;28;20021;-81
2022/02/15 07:52:11;;;;;;;31.10;22.30;;;;;;;;;;5032176;28;20033;-81
2022/02/15 07:54:37;;;;;;;27.80;20.30;;;;;;;;;;5036119;28;20031;-80
2022/02/15 07:57:05;;;;;;;34.58;22.08;;;;;;;;;;5033559;28;20025;-80
2022/02/15 07:59:31;;;;;;;34.20;21.48;;;;;;;;;;5051361;28;20017;-80
2022/02/15 08:01:57;;;;;;;29.20;21.65;;;;;;;;;;5028328;28;20082;-80
2022/02/15 08:04:23;;;;;;;36.63;21.88;;;;;;;;;;5041567;28;20579;-80
2022/02/15 08:06:52;;;;;;;32.78;21.58;;;;;;;;;;5039803;28;20116;-80
2022/02/15 08:09:21;;;;;;;31.45;21.48;;;;;;;;;;5057767;28;20036;-80
2022/02/15 08:11:47;;;;;;;33.50;22.38;;;;;;;;;;5034003;28;20414;-80
2022/02/15 08:14:13;;;;;;;34.20;22.38;;;;;;;;;;5019805;28;20112;-80
2022/02/15 08:16:39;;;;;;;31.75;23.65;;;;;;;;;;5040348;28;20032;-81
2022/02/15 08:19:05;;;;;;;35.42;23.30;;;;;;;;;;5058228;28;20025;-80
2022/02/15 08:21:31;;;;;;;33.35;23.10;;;;;;;;;;5039472;28;20024;-81
2022/02/15 08:23:57;;;;;;;30.95;22.33;;;;;;;;;;5058438;28;20114;-81
2022/02/15 08:26:24;;;;;;;35.70;24.23;;;;;;;;;;5057161;28;20024;-81
2022/02/15 08:28:51;;;;;;;30.73;23.42;;;;;;;;;;5057031;28;20021;-81
2022/02/15 08:31:17;;;;;;;33.05;22.60;;;;;;;;;;5057249;28;20128;-81
2022/02/15 08:33:43;;;;;;;35.33;24.60;;;;;;;;;;5058494;28;20029;-81
2022/02/15 08:36:09;;;;;;;33.78;23.67;;;;;;;;;;5039379;28;20120;-81
2022/02/15 08:38:35;;;;;;;33.25;24.48;;;;;;;;;;5058454;28;20111;-81
2022/02/15 08:41:01;;;;;;;41.88;25.92;;;;;;;;;;5039954;28;20009;-81
2022/02/15 08:43:27;;;;;;;38.38;24.27;;;;;;;;;;5039353;28;20511;-81
2022/02/15 08:45:53;;;;;;;38.90;25.02;;;;;;;;;;5039380;28;20032;-81
2022/02/15 08:48:20;;;;;;;36.15;24.83;;;;;;;;;;5057318;28;20102;-81
2022/02/15 08:50:46;;;;;;;38.00;25.13;;;;;;;;;;5057228;28;20028;-80
2022/02/15 08:53:12;;;;;;;39.60;24.85;;;;;;;;;;5057903;28;20043;-81
2022/02/15 08:55:38;;;;;;;43.38;26.45;;;;;;;;;;5039742;28;20033;-81
2022/02/15 08:58:05;;;;;;;31.88;23.50;;;;;;;;;;5057901;28;20116;-81
2022/02/15 09:00:31;;;;;;;36.65;23.80;;;;;;;;;;5039559;28;20028;-81
2022/02/15 09:02:57;;;;;;;33.80;23.38;;;;;;;;;;5038699;28;20053;-81
2022/02/15 09:05:23;;;;;;;31.13;22.73;;;;;;;;;;5057480;28;20021;-81
2022/02/15 09:07:49;;;;;;;33.45;23.90;;;;;;;;;;5039548;28;20021;-81
2022/02/15 09:10:16;;;;;;;33.80;25.20;;;;;;;;;;5056794;28;20400;-81
2022/02/15 09:12:42;;;;;;;35.72;24.80;;;;;;;;;;5057196;28;20025;-81
2022/02/15 09:15:13;;;;;;;36.83;24.40;;;;;;;;;;5057479;28;20027;-80
2022/02/15 09:17:39;;;;;;;34.65;24.65;;;;;;;;;;5057200;28;20048;-81
2022/02/15 09:20:07;;;;;;;35.25;25.60;;;;;;;;;;5038982;28;20020;-81
2022/02/15 09:22:33;;;;;;;36.35;24.70;;;;;;;;;;5045311;28;20040;-81
2022/02/15 09:24:59;;;;;;;33.08;25.20;;;;;;;;;;5019183;28;20029;-81
2022/02/15 09:27:26;;;;;;;34.10;24.05;;;;;;;;;;5022528;28;20512;-81
2022/02/15 09:29:53;;;;;;;39.58;25.83;;;;;;;;;;5057105;28;20021;-81
2022/02/15 09:32:19;;;;;;;35.70;26.15;;;;;;;;;;5038584;28;20067;-81
2022/02/15 09:34:45;;;;;;;33.70;24.98;;;;;;;;;;5038876;28;20036;-81
2022/02/15 09:37:11;;;;;;;35.20;24.02;;;;;;;;;;5041652;28;20025;-81
2022/02/15 09:39:37;;;;;;;35.22;24.90;;;;;;;;;;5040841;28;20047;-81
2022/02/15 09:42:03;;;;;;;32.13;23.75;;;;;;;;;;5056443;28;20028;-81
2022/02/15 09:44:29;;;;;;;31.30;23.70;;;;;;;;;;5056570;28;20126;-80
2022/02/15 09:46:56;;;;;;;33.17;24.08;;;;;;;;;;5042436;28;20036;-81
2022/02/15 09:52:13;;;;;;;30.75;22.95;;;;;;;;;;5056522;28;20036;-81
2022/02/15 09:54:39;;;;;;;29.00;21.38;;;;;;;;;;5054689;28;20033;-80
2022/02/15 09:57:06;;;;;;;30.95;22.95;;;;;;;;;;5056527;28;20431;-81
2022/02/15 09:59:32;;;;;;;34.97;23.52;;;;;;;;;;5056390;28;20036;-80
2022/02/15 10:02:01;;;;;;;31.63;22.48;;;;;;;;;;5056245;28;20031;-81
2022/02/15 10:04:32;;;;;;;31.30;22.33;;;;;;;;;;5047399;28;20047;-80
2022/02/15 10:06:58;;;;;;;32.85;23.02;;;;;;;;;;5019242;28;20029;-81
2022/02/15 10:09:26;;;;;;;26.98;20.63;;;;;;;;;;5032577;28;20511;-81
2022/02/15 10:11:52;;;;;;;30.80;22.83;;;;;;;;;;5056046;28;20033;-80
2022/02/15 10:14:18;;;;;;;26.35;21.65;;;;;;;;;;5048889;28;20049;-80
2022/02/15 10:16:49;;;;;;;28.98;20.67;;;;;;;;;;5018175;28;20068;-81
2022/02/15 10:19:25;;;;;;;29.52;22.13;;;;;;;;;;5031727;28;20033;-80
2022/02/15 10:21:54;;;;;;;27.65;21.58;;;;;;;;;;5055400;28;20064;-80
2022/02/15 10:24:20;;;;;;;30.13;21.15;;;;;;;;;;5036742;28;20029;-80
2022/02/15 10:26:53;;;;;;;35.70;25.20;;;;;;;;;;5055030;28;20025;-80
2022/02/15 10:29:20;;;;;;;30.77;22.00;;;;;;;;;;5071127;28;20024;-80
2022/02/15 10:31:46;;;;;;;31.33;22.27;;;;;;;;;;5034810;28;20029;-80
2022/02/15 10:34:12;;;;;;;29.83;22.40;;;;;;;;;;5054969;28;20025;-80
2022/02/15 10:36:38;;;;;;;33.08;22.77;;;;;;;;;;5037673;28;20032;-80
2022/02/15 10:39:04;;;;;;;32.95;23.42;;;;;;;;;;5055604;28;20040;-81
2022/02/15 10:41:34;;;;;;;27.80;21.67;;;;;;;;;;5037482;28;20579;-81
2022/02/15 10:44:00;;;;;;;31.17;21.75;;;;;;;;;;5037423;28;20013;-81
2022/02/15 10:46:28;;;;;;;31.25;21.80;;;;;;;;;;5037064;28;20500;-80
2022/02/15 10:48:55;;;;;;;29.92;23.60;;;;;;;;;;5055544;28;20515;-81
2022/02/15 10:51:21;;;;;;;30.45;23.08;;;;;;;;;;5054733;28;20064;-81
2022/02/15 10:53:47;;;;;;;30.05;23.58;;;;;;;;;;5055233;28;20484;-81
2022/02/15 10:56:13;;;;;;;33.00;23.60;;;;;;;;;;5020866;28;20560;-81
2022/02/15 10:58:40;;;;;;;28.20;22.17;;;;;;;;;;5046064;28;20036;-81
2022/02/15 11:01:10;;;;;;;29.48;22.08;;;;;;;;;;5055550;28;20476;-81
2022/02/15 11:03:39;;;;;;;30.83;22.63;;;;;;;;;;5037285;28;20033;-81
2022/02/15 11:06:06;;;;;;;29.55;23.00;;;;;;;;;;5036921;28;20025;-81
2022/02/15 11:08:32;;;;;;;28.83;23.15;;;;;;;;;;5055621;28;20021;-81
2022/02/15 11:11:05;;;;;;;27.80;22.42;;;;;;;;;;5054312;28;20025;-81
2022/02/15 11:13:34;;;;;;;26.55;22.40;;;;;;;;;;5056823;28;20033;-81
2022/02/15 11:16:02;;;;;;;28.25;21.98;;;;;;;;;;5056927;28;20388;-81
2022/02/15 11:18:32;;;;;;;29.17;23.17;;;;;;;;;;5043114;28;20400;-81
2022/02/15 11:21:00;;;;;;;28.40;22.98;;;;;;;;;;5036737;28;20591;-81
2022/02/15 11:23:27;;;;;;;31.45;25.23;;;;;;;;;;5019709;28;20029;-81
2022/02/15 11:26:05;;;;;;;31.30;24.65;;;;;;;;;;5034716;28;20029;-81
2022/02/15 11:28:33;;;;;;;29.35;24.25;;;;;;;;;;5021942;28;20025;-81
2022/02/15 11:31:02;;;;;;;28.02;22.38;;;;;;;;;;5036603;28;20028;-81
2022/02/15 11:33:30;;;;;;;27.73;22.13;;;;;;;;;;5055486;28;20423;-81
2022/02/15 11:35:57;;;;;;;26.25;22.27;;;;;;;;;;5055275;28;20036;-81
2022/02/15 11:38:26;;;;;;;31.23;23.45;;;;;;;;;;5036785;28;20021;-81
2022/02/15 11:41:06;;;;;;;29.05;24.00;;;;;;;;;;5055180;28;20056;-81
2022/02/15 11:43:33;;;;;;;37.83;25.63;;;;;;;;;;5037326;28;20025;-81
2022/02/15 11:46:00;;;;;;;31.90;24.65;;;;;;;;;;5055634;28;20021;-80
2022/02/15 11:48:36;;;;;;;29.13;24.73;;;;;;;;;;5053548;28;20041;-81
2022/02/15 11:51:02;;;;;;;30.45;25.23;;;;;;;;;;5036265;28;20021;-81
2022/02/15 11:53:29;;;;;;;30.20;25.25;;;;;;;;;;5055296;28;20029;-81
2022/02/15 11:55:56;;;;;;;33.20;25.52;;;;;;;;;;5054779;28;20414;-81
2022/02/15 11:58:22;;;;;;;28.98;24.10;;;;;;;;;;5050862;28;20040;-81
2022/02/15 12:00:48;;;;;;;32.63;24.77;;;;;;;;;;5054416;28;20028;-81
2022/02/15 12:03:15;;;;;;;27.92;24.50;;;;;;;;;;5036759;28;20029;-81
2022/02/15 12:05:44;;;;;;;29.88;24.40;;;;;;;;;;5027507;28;20026;-81
2022/02/15 12:08:10;;;;;;;34.95;25.15;;;;;;;;;;5048848;28;20077;-81
2022/02/15 12:10:36;;;;;;;30.95;25.25;;;;;;;;;;5054385;28;20488;-80
2022/02/15 12:13:03;;;;;;;32.63;24.95;;;;;;;;;;5054501;28;20049;-80
2022/02/15 12:15:34;;;;;;;33.38;26.25;;;;;;;;;;5054900;28;20472;-79
2022/02/15 12:18:00;;;;;;;31.02;24.17;;;;;;;;;;5054209;28;20048;-81
2022/02/15 12:20:27;;;;;;;30.95;24.77;;;;;;;;;;5054642;28;20025;-81
2022/02/15 12:22:55;;;;;;;30.75;25.13;;;;;;;;;;5057503;28;20519;-82
2022/02/15 12:25:21;;;;;;;32.70;24.63;;;;;;;;;;5059250;28;20028;-82
2022/02/15 12:27:47;;;;;;;33.13;24.75;;;;;;;;;;5057241;28;20045;-82
2022/02/15 12:30:14;;;;;;;32.60;25.52;;;;;;;;;;5056794;28;20496;-81
2022/02/15 12:32:43;;;;;;;30.10;25.30;;;;;;;;;;5058425;28;20066;-81
2022/02/15 12:35:09;;;;;;;29.10;24.10;;;;;;;;;;5036897;28;20047;-82
2022/02/15 12:37:36;;;;;;;30.13;23.88;;;;;;;;;;5057606;28;20029;-83
2022/02/15 12:40:03;;;;;;;30.33;24.23;;;;;;;;;;5054100;28;20025;-80
2022/02/15 12:42:29;;;;;;;27.60;22.58;;;;;;;;;;5057527;28;20017;-80
2022/02/15 12:45:06;;;;;;;33.03;24.63;;;;;;;;;;5056798;28;20031;-80
2022/02/15 12:47:35;;;;;;;26.92;22.80;;;;;;;;;;5057244;28;20098;-80
2022/02/15 12:50:03;;;;;;;32.08;23.30;;;;;;;;;;5032290;28;20111;-80
2022/02/15 12:52:29;;;;;;;32.72;24.58;;;;;;;;;;5060445;28;20073;-80
2022/02/15 12:54:57;;;;;;;28.42;23.45;;;;;;;;;;5058781;28;20078;-81
2022/02/15 12:57:24;;;;;;;35.15;25.60;;;;;;;;;;5052423;28;20048;-82
2022/02/15 13:00:01;;;;;;;32.42;24.98;;;;;;;;;;5052872;28;20021;-81
2022/02/15 13:02:29;;;;;;;31.15;24.85;;;;;;;;;;5042032;28;20021;-81
2022/02/15 13:04:56;;;;;;;30.45;24.52;;;;;;;;;;5057233;28;20393;-80
2022/02/15 13:07:22;;;;;;;32.40;26.00;;;;;;;;;;5050856;28;20026;-80
2022/02/15 13:09:49;;;;;;;34.78;24.75;;;;;;;;;;5053485;28;20021;-80
2022/02/15 13:12:24;;;;;;;31.00;24.85;;;;;;;;;;5038749;28;20021;-80
2022/02/15 13:14:53;;;;;;;24.75;20.73;;;;;;;;;;5039105;28;20040;-81
2022/02/15 13:17:20;;;;;;;18.35;13.60;;;;;;;;;;5056240;28;20532;-80
2022/02/15 13:19:46;;;;;;;15.18;11.30;;;;;;;;;;5056356;28;20036;-80
2022/02/15 13:22:22;;;;;;;16.25;12.98;;;;;;;;;;5056473;28;20029;-81
2022/02/15 13:24:53;;;;;;;16.85;13.30;;;;;;;;;;5057098;28;20079;-80
2022/02/15 13:27:32;;;;;;;17.35;13.77;;;;;;;;;;5038929;28;20031;-81
2022/02/15 13:29:58;;;;;;;18.80;14.43;;;;;;;;;;5038746;28;20032;-81
2022/02/15 13:32:28;;;;;;;17.75;14.38;;;;;;;;;;5037980;28;20120;-81
2022/02/15 13:34:54;;;;;;;20.15;15.57;;;;;;;;;;5055284;28;20033;-82
2022/02/15 13:37:20;;;;;;;19.35;15.70;;;;;;;;;;5058490;28;20056;-81
2022/02/15 13:39:46;;;;;;;19.15;14.80;;;;;;;;;;5044818;28;20484;-80
2022/02/15 13:42:13;;;;;;;16.70;13.85;;;;;;;;;;5042980;28;20131;-81
2022/02/15 13:44:41;;;;;;;19.13;14.75;;;;;;;;;;5076780;28;20046;-81
2022/02/15 13:47:07;;;;;;;17.67;14.32;;;;;;;;;;5038803;28;20432;-81
2022/02/15 13:49:33;;;;;;;18.63;15.07;;;;;;;;;;5035996;28;20025;-81
2022/02/15 13:51:59;;;;;;;19.90;14.85;;;;;;;;;;5055030;28;20029;-80
2022/02/15 13:54:25;;;;;;;16.95;13.73;;;;;;;;;;5054301;28;20036;-80
2022/02/15 13:56:51;;;;;;;16.05;12.60;;;;;;;;;;5054177;28;20103;-80
2022/02/15 13:59:17;;;;;;;17.60;12.75;;;;;;;;;;5072469;28;20020;-80
2022/02/15 14:01:51;;;;;;;19.15;13.32;;;;;;;;;;5069751;28;20032;-81
2022/02/15 14:04:20;;;;;;;18.25;12.73;;;;;;;;;;5053015;28;20067;-80
2022/02/15 14:06:46;;;;;;;18.70;13.93;;;;;;;;;;5034347;28;20060;-81
2022/02/15 14:09:12;;;;;;;19.17;13.68;;;;;;;;;;5026182;28;20025;-81
2022/02/15 14:11:38;;;;;;;16.83;12.88;;;;;;;;;;5037969;28;20046;-82
2022/02/15 14:14:04;;;;;;;16.25;12.30;;;;;;;;;;5056229;28;20484;-82
2022/02/15 14:16:30;;;;;;;17.98;13.07;;;;;;;;;;5056830;28;20039;-82
2022/02/15 14:18:56;;;;;;;17.48;12.73;;;;;;;;;;5051977;28;20112;-81
2022/02/15 14:21:22;;;;;;;16.70;12.30;;;;;;;;;;5054876;28;20179;-81
2022/02/15 14:23:48;;;;;;;17.65;13.13;;;;;;;;;;5043352;28;20032;-81